»·PEaware :: N744VL KLAS-KPSP

N744VL :: KLAS-KPSP

FLIGHT INFORMATION

Flight Status: Arrived
Operator: Privately registered:
United States
More flights under this callsign
Pilot: Todd T. (13067)
Aircraft: BEECH AIRCRAFT BARON
(BE58)
More flights by this aircraft type
Origin: KLAS McCarran Intl
United States
Destination: KPSP Palm Springs Intl
United States
More flights between these airports :: More routes between these airports
Route: +CLARR GFS JOTNU TNP CLOWD1 KPSP
File this flight plan on PilotEdge
Remarks: CLARR for weather
Altitude:
(Current/Filed)
12,000ft
Speed:
(Current/Filed)
0kts
Departed: 02-Aug-18 05:48 PM
Arrived: 02-Aug-18 06:53 PM
Distance/Time
Traveled:
151nm/1:05
Distance/Time
To Go:
Arrived

Flight Plot

Page will automatically refresh every two minutes.

Flight plan parsing failed; only flown route is shown


Map Options




Map Legend


Flown Route
Filed Route
Departure Airport
Arrival Airport
Navaid (VOR, NDB)
Fix

Horizontal Profiles

Position Reports

Time Latitude Longitude Heading Altitude Ground
Speed
02-Aug-18 17:25 36.084040 -115.169885 179 2114ft 0kts
02-Aug-18 17:26 36.084040 -115.169885 179 2114ft 0kts
02-Aug-18 17:27 36.084040 -115.169885 179 2114ft 0kts
02-Aug-18 17:28 36.084040 -115.169885 179 2114ft 0kts
02-Aug-18 17:29 36.084040 -115.169885 179 2114ft 0kts
02-Aug-18 17:30 36.084040 -115.169885 179 2114ft 0kts
02-Aug-18 17:31 36.084040 -115.169885 179 2114ft 0kts
02-Aug-18 17:32 36.084040 -115.169885 179 2114ft 0kts
02-Aug-18 17:33 36.084040 -115.169885 179 2114ft 0kts
02-Aug-18 17:34 36.084040 -115.169885 179 2114ft 0kts
02-Aug-18 17:35 36.084040 -115.169885 179 2114ft 0kts
02-Aug-18 17:36 36.084040 -115.169885 179 2114ft 0kts
02-Aug-18 17:37 36.084040 -115.169885 179 2114ft 0kts
02-Aug-18 17:38 36.084040 -115.169885 179 2114ft 0kts
02-Aug-18 17:39 36.084040 -115.169885 179 2114ft 0kts
02-Aug-18 17:40 36.083698 -115.169097 112 2114ft 15kts
02-Aug-18 17:41 36.086832 -115.166192 25 2114ft 24kts
02-Aug-18 17:42 36.093709 -115.162274 25 2114ft 29kts
02-Aug-18 17:43 36.099688 -115.158403 69 2114ft 19kts
02-Aug-18 17:44 36.099854 -115.157452 92 2114ft 0kts
02-Aug-18 17:45 36.099854 -115.157451 91 2114ft 0kts
02-Aug-18 17:46 36.099854 -115.157452 91 2114ft 0kts
02-Aug-18 17:47 36.099854 -115.157451 91 2114ft 0kts
02-Aug-18 17:48 36.098594 -115.157070 205 2114ft 23kts
02-Aug-18 17:49 36.078108 -115.169306 205 2817ft 120kts
02-Aug-18 17:50 36.045683 -115.176061 188 4247ft 126kts
02-Aug-18 17:51 36.005749 -115.181348 185 5553ft 124kts
02-Aug-18 17:52 35.977220 -115.183140 184 6259ft 127kts
02-Aug-18 17:53 35.941336 -115.187311 187 6996ft 132kts
02-Aug-18 17:54 35.904784 -115.191810 187 7754ft 132kts
02-Aug-18 17:55 35.868824 -115.196216 187 8478ft 131kts
02-Aug-18 17:56 35.831041 -115.199491 187 9084ft 145kts
02-Aug-18 17:57 35.790066 -115.202023 187 9711ft 149kts
02-Aug-18 17:58 35.747226 -115.205080 187 10050ft 167kts
02-Aug-18 17:59 35.699590 -115.207486 181 10345ft 169kts
02-Aug-18 18:00 35.653380 -115.205037 181 10828ft 164kts
02-Aug-18 18:01 35.607981 -115.202494 180 11263ft 164kts
02-Aug-18 18:02 35.562342 -115.200021 181 11682ft 164kts
02-Aug-18 18:03 35.516699 -115.197526 181 12039ft 168kts
02-Aug-18 18:04 35.467836 -115.194885 180 12045ft 181kts
02-Aug-18 18:05 35.416524 -115.192067 180 12043ft 187kts
02-Aug-18 18:06 35.363781 -115.189275 179 11948ft 194kts
02-Aug-18 18:07 35.309846 -115.186174 180 11880ft 193kts
02-Aug-18 18:08 35.256734 -115.183288 180 11880ft 190kts
02-Aug-18 18:09 35.203825 -115.180400 180 11881ft 190kts
02-Aug-18 18:10 35.151207 -115.177530 180 11881ft 190kts
02-Aug-18 18:11 35.100939 -115.189746 203 11881ft 185kts
02-Aug-18 18:12 35.052574 -115.211201 203 11881ft 185kts
02-Aug-18 18:13 35.003950 -115.232699 203 11881ft 185kts
02-Aug-18 18:14 34.955419 -115.254118 203 11881ft 185kts
02-Aug-18 18:15 34.907017 -115.275522 203 11882ft 186kts
02-Aug-18 18:16 34.859588 -115.296296 203 12007ft 181kts
02-Aug-18 18:17 34.811978 -115.317265 203 12008ft 183kts
02-Aug-18 18:18 34.763915 -115.338374 203 12008ft 184kts
02-Aug-18 18:19 34.715626 -115.359549 203 12008ft 185kts
02-Aug-18 18:20 34.667209 -115.380754 203 12008ft 185kts
02-Aug-18 18:21 34.618806 -115.401928 203 12008ft 185kts
02-Aug-18 18:22 34.570788 -115.422891 203 12103ft 180kts
02-Aug-18 18:23 34.523387 -115.443599 203 12143ft 183kts
02-Aug-18 18:24 34.475261 -115.464550 203 12143ft 185kts
02-Aug-18 18:25 34.426742 -115.485685 203 12143ft 185kts
02-Aug-18 18:26 34.378424 -115.506693 203 12143ft 185kts
02-Aug-18 18:27 34.329909 -115.527793 205 12142ft 185kts
02-Aug-18 18:28 34.291889 -115.567618 226 12143ft 181kts
02-Aug-18 18:29 34.255117 -115.609070 227 12143ft 181kts
02-Aug-18 18:30 34.218505 -115.650502 226 12143ft 181kts
02-Aug-18 18:31 34.181694 -115.691950 225 12143ft 182kts
02-Aug-18 18:32 34.144528 -115.733659 226 12145ft 182kts
02-Aug-18 18:33 34.106685 -115.774315 217 12146ft 184kts
02-Aug-18 18:34 34.062022 -115.810713 216 11673ft 200kts
02-Aug-18 18:35 34.015652 -115.848236 216 11264ft 202kts
02-Aug-18 18:36 33.970300 -115.884869 217 11180ft 191kts
02-Aug-18 18:37 33.926892 -115.919944 217 11181ft 186kts
02-Aug-18 18:38 33.884145 -115.954452 217 11180ft 185kts
02-Aug-18 18:39 33.838867 -115.983109 205 10613ft 185kts
02-Aug-18 18:40 33.791941 -116.009565 205 9568ft 188kts
02-Aug-18 18:41 33.741972 -116.034975 208 8203ft 193kts
02-Aug-18 18:42 33.693224 -116.062012 209 7097ft 194kts
02-Aug-18 18:43 33.645160 -116.088210 206 6000ft 188kts
02-Aug-18 18:44 33.600955 -116.117593 251 4924ft 183kts
02-Aug-18 18:45 33.621969 -116.171206 307 4360ft 185kts
02-Aug-18 18:46 33.654675 -116.217810 307 4003ft 176kts
02-Aug-18 18:47 33.686078 -116.259895 309 3774ft 160kts
02-Aug-18 18:48 33.714518 -116.299030 310 3816ft 147kts
02-Aug-18 18:49 33.741637 -116.336557 307 3787ft 146kts
02-Aug-18 18:50 33.762924 -116.380282 295 3323ft 154kts
02-Aug-18 18:51 33.778915 -116.426064 297 2645ft 127kts
02-Aug-18 18:52 33.792729 -116.464686 300 1403ft 119kts
02-Aug-18 18:53 33.811092 -116.491465 325 737ft 96kts
02-Aug-18 18:54 33.828774 -116.506890 327 425ft 34kts
02-Aug-18 18:55 33.830676 -116.506990 4 425ft 0kts
02-Aug-18 18:56 33.831231 -116.506879 45 425ft 0kts
02-Aug-18 18:57 33.829923 -116.504026 144 425ft 25kts
02-Aug-18 18:58 33.824724 -116.499039 83 426ft 9kts
02-Aug-18 18:59 33.824834 -116.498725 59 426ft 0kts
02-Aug-18 19:00 33.824834 -116.498726 59 426ft 0kts

Navigation Log

Ident Type
Flight plan parsing failed, navigation log unavailable